Atwater, IL

6:24 PM CST on February 05, 2016 (GMT -0600)
N.W side of town | | Change Station
CLOSE
Current Station
Personal Weather Station
Location: Raymond, IL
Elevation: 640 ft
Nearby Weather Stations

Elev 640 ft 39.32 °N, 89.58 °W | Updated 1 minute ago

Clear
Clear
29.7 °F
Feels Like 30 °F
N
0.0
Wind Variable Wind from ENE

Today
High -- | Low -- °F
--% Chance of Precip.
Yesterday
High -- | Low -- °F
Precip. -- in
Pressure 30.37 in
Visibility 10.0 miles
Clouds Clear
Windchill 30 °F
Dew Point 25 °F
Humidity 82%
Rainfall 0.00 in
Snow Depth Not available.
7:02 AM 5:23 PM
Waning Crescent, 8% visible
METAR K3LF 060015Z AUTO 00000KT 10SM CLR 00/M07 A3037 RMK AO2 T10041067
Pressure 30.37 in
Visibility 10.0 miles
Clouds Clear
Windchill 30 °F
Dew Point 25 °F
Humidity 82%
Rainfall 0.00 in
Snow Depth Not available.
7:02 AM 5:23 PM
Waning Crescent, 8% visible
METAR K3LF 060015Z AUTO 00000KT 10SM CLR 00/M07 A3037 RMK AO2 T10041067

10-Day Weather Forecast

Almanac

Astronomy

Feb. 05, 2016 Rise Set
Actual Time
Civil Twilight
Nautical Twilight
Astronomical Twilight
Moon
Length of Visible Light
Length of Day
Tomorrow will be .
, % of the Moon is Illuminated

Today's Extremes

State Highs State Lows

Community

WunderPhotos

Upload Photos

1,890,897 photos uploaded!

WunderBlog® & News

Nearby

Air Quality

  Air Quality AQ Index Pollutant
Not available.

Snow Depth

Station Depth Elevation

Earthquake Activity

City Distance Mag. Time & Date
Minimum magnitude displayed is 2.5.

Coastal Water Temperatures

Place Temperature

Stations

Nearby Weather Stations

Station Location Temp. Windchill Dew Point Humidity Wind Precip. Elev Updated Type
                   

Watches & Warnings

There are currently no watches in effect.